Time;durP1;ratioP1;P1;durP2;ratioP2;P2;SDS_P1;SDS_P2;PMS_P1;PMS_P2;Temp;Humidity;BMP_temperature;BMP_pressure;BME280_temperature;BME280_humidity;BME280_pressure;Samples;Min_cycle;Max_cycle;Signal;HPM_P1;HPM_P2
2020/12/17 00:00:19;;;;;;;248.23;39.13;;;;;;;0.18;100.00;96156.63;1026709;28;20039;-69
2020/12/17 00:00:49;;;;;;;190.97;35.50;;;;;;;0.22;100.00;96163.00;1024482;28;20618;-71
2020/12/17 00:01:19;;;;;;;187.47;40.03;;;;;;;0.25;100.00;96166.22;1033925;28;20026;-70
2020/12/17 00:02:00;;;;;;;265.80;46.47;;;;;;;0.23;100.00;96163.81;1034120;28;20491;-72
2020/12/17 00:02:31;;;;;;;217.38;39.65;;;;;;;0.21;100.00;96161.41;1031958;28;20034;-71
2020/12/17 00:03:01;;;;;;;255.53;36.73;;;;;;;0.23;100.00;96163.81;1028741;28;20034;-71
2020/12/17 00:03:32;;;;;;;251.23;37.60;;;;;;;0.25;100.00;96167.00;1031892;28;20041;-70
2020/12/17 00:04:02;;;;;;;328.80;46.47;;;;;;;0.22;100.00;96163.00;1034621;28;20026;-72
2020/12/17 00:04:33;;;;;;;257.83;41.10;;;;;;;0.23;100.00;96168.97;1030428;28;20022;-72
2020/12/17 00:05:03;;;;;;;232.57;36.37;;;;;;;0.14;100.00;96160.56;1038426;28;20029;-71
2020/12/17 00:05:34;;;;;;;252.07;37.37;;;;;;;0.21;100.00;96163.22;1030350;28;20117;-72
2020/12/17 00:06:04;;;;;;;273.97;43.47;;;;;;;0.18;100.00;96164.38;1029382;28;20030;-71
2020/12/17 00:06:35;;;;;;;295.00;43.77;;;;;;;0.15;100.00;96157.00;1034207;28;20368;-72
2020/12/17 00:07:06;;;;;;;226.85;38.88;;;;;;;0.25;100.00;96168.78;1026469;28;20777;-69
2020/12/17 00:07:39;;;;;;;274.57;42.53;;;;;;;0.21;100.00;96168.38;1029713;28;20039;-69
2020/12/17 00:08:10;;;;;;;222.30;39.47;;;;;;;0.25;100.00;96166.22;1022497;28;20022;-71
2020/12/17 00:08:40;;;;;;;169.80;35.83;;;;;;;0.25;100.00;96171.38;1022964;28;20035;-69
2020/12/17 00:09:10;;;;;;;206.38;36.75;;;;;;;0.26;100.00;96168.59;1027255;28;20703;-71
2020/12/17 00:09:41;;;;;;;200.57;39.58;;;;;;;0.26;100.00;96166.00;1034419;28;20026;-72
2020/12/17 00:10:12;;;;;;;193.37;39.90;;;;;;;0.07;100.00;96133.09;1038734;28;20017;-72
2020/12/17 00:10:43;;;;;;;188.02;38.58;;;;;;;0.28;100.00;96171.78;1038641;28;20671;-70
2020/12/17 00:11:13;;;;;;;230.15;37.55;;;;;;;0.29;100.00;96157.09;1037229;28;20142;-71
2020/12/17 00:11:44;;;;;;;212.53;35.40;;;;;;;0.29;100.00;96167.44;1049180;28;20012;-72
2020/12/17 00:12:14;;;;;;;200.20;37.53;;;;;;;0.28;100.00;96160.69;1030601;28;20022;-71
2020/12/17 00:12:46;;;;;;;179.13;35.67;;;;;;;0.31;100.00;96165.47;1026589;28;20038;-72
2020/12/17 00:13:18;;;;;;;196.93;34.53;;;;;;;0.31;100.00;96168.03;1026554;28;20581;-70
2020/12/17 00:13:48;;;;;;;156.13;34.08;;;;;;;0.28;100.00;96160.69;1030940;28;20084;-70
2020/12/17 00:14:19;;;;;;;198.90;37.00;;;;;;;0.27;100.00;96159.06;1034978;28;20067;-71
2020/12/17 00:14:49;;;;;;;133.23;31.80;;;;;;;0.19;100.00;96145.31;1038946;28;20020;-72
2020/12/17 00:15:20;;;;;;;150.87;34.97;;;;;;;0.25;100.00;96155.88;1034427;28;20109;-70
2020/12/17 00:15:51;;;;;;;177.87;34.93;;;;;;;0.26;100.00;96152.31;1038591;28;20056;-72
2020/12/17 00:16:21;;;;;;;202.47;34.67;;;;;;;0.25;100.00;96150.72;1038671;28;20033;-71
2020/12/17 00:16:51;;;;;;;176.53;35.13;;;;;;;0.25;100.00;96156.69;1038603;28;20029;-72
2020/12/17 00:17:22;;;;;;;229.97;35.03;;;;;;;0.26;100.00;96150.53;1038374;28;20118;-69
2020/12/17 00:17:52;;;;;;;172.20;35.00;;;;;;;0.27;100.00;96146.97;1055874;28;20019;-71
2020/12/17 00:18:23;;;;;;;214.73;40.70;;;;;;;0.28;100.00;96152.94;1051503;28;20012;-72
2020/12/17 00:18:54;;;;;;;214.83;39.43;;;;;;;0.23;100.00;96153.47;1047309;28;20016;-69
2020/12/17 00:19:25;;;;;;;226.77;40.40;;;;;;;0.29;100.00;96151.94;1026383;28;20026;-71
2020/12/17 00:19:55;;;;;;;223.27;41.17;;;;;;;0.23;100.00;96149.13;1034447;28;20055;-69
2020/12/17 00:20:25;;;;;;;206.20;36.00;;;;;;;0.28;100.00;96156.31;1030566;28;20026;-70
2020/12/17 00:20:56;;;;;;;212.73;38.47;;;;;;;0.26;100.00;96153.09;1026661;28;20041;-74
2020/12/17 00:21:26;;;;;;;207.67;39.77;;;;;;;0.32;100.00;96165.25;1026264;28;20142;-71
2020/12/17 00:21:57;;;;;;;295.83;47.50;;;;;;;0.33;100.00;96168.63;1029827;28;20022;-71
2020/12/17 00:22:33;;;;;;;182.17;31.80;;;;;;;0.26;100.00;96165.22;1026514;28;20156;-70
2020/12/17 00:23:03;;;;;;;191.65;36.03;;;;;;;0.29;100.00;96167.44;1028020;28;20114;-70
2020/12/17 00:23:34;;;;;;;164.35;34.55;;;;;;;0.33;100.00;96169.44;1021998;29;20023;-70
2020/12/17 00:24:04;;;;;;;152.63;32.80;;;;;;;0.34;100.00;96168.47;1023771;28;20016;-69
2020/12/17 00:24:35;;;;;;;181.60;33.70;;;;;;;0.30;100.00;96167.22;1026655;28;20049;-72
2020/12/17 00:25:09;;;;;;;250.02;38.47;;;;;;;0.30;100.00;96172.38;1026220;28;20026;-70
2020/12/17 00:25:40;;;;;;;255.45;33.22;;;;;;;0.23;100.00;96174.94;1030096;28;20034;-71
2020/12/17 00:26:12;;;;;;;224.67;34.20;;;;;;;0.27;100.00;96167.63;1023131;28;20555;-70
2020/12/17 00:26:42;;;;;;;242.98;37.42;;;;;;;0.23;100.00;96174.94;1023833;28;20277;-70
2020/12/17 00:27:12;;;;;;;187.13;32.87;;;;;;;0.13;100.00;96161.53;1026430;28;20019;-71
2020/12/17 00:27:44;;;;;;;221.93;35.97;;;;;;;0.23;100.00;96168.97;1026467;28;20086;-72
2020/12/17 00:28:14;;;;;;;216.00;37.22;;;;;;;0.23;100.00;96169.78;1030565;28;20634;-69
2020/12/17 00:28:45;;;;;;;241.35;37.22;;;;;;;0.23;100.00;96167.19;1030403;28;20027;-70
2020/12/17 00:29:15;;;;;;;189.47;36.23;;;;;;;0.25;100.00;96171.38;1030719;28;20030;-72
2020/12/17 00:29:46;;;;;;;198.50;37.22;;;;;;;0.23;100.00;96164.63;1026320;28;20034;-70
2020/12/17 00:30:17;;;;;;;174.25;35.97;;;;;;;0.21;100.00;96161.41;1034429;28;20037;-70
2020/12/17 00:30:47;;;;;;;196.63;41.35;;;;;;;0.24;100.00;96165.41;1030515;28;20512;-71
2020/12/17 00:31:18;;;;;;;237.17;39.40;;;;;;;0.22;100.00;96168.16;1026632;28;20030;-69
2020/12/17 00:31:51;;;;;;;226.40;39.30;;;;;;;0.21;100.00;96166.56;1026849;28;20420;-72
2020/12/17 00:32:22;;;;;;;200.00;36.67;;;;;;;0.23;100.00;96164.63;1031667;28;20540;-69
2020/12/17 00:32:52;;;;;;;314.55;44.30;;;;;;;0.02;100.00;96131.09;1038727;28;20032;-70
2020/12/17 00:33:23;;;;;;;234.93;37.07;;;;;;;0.21;100.00;96161.41;1049206;28;20024;-71
2020/12/17 00:33:53;;;;;;;225.57;36.07;;;;;;;0.15;100.00;96157.00;1030180;28;20541;-70
2020/12/17 00:34:24;;;;;;;208.83;38.47;;;;;;;0.23;100.00;96164.63;1026269;28;20062;-71
2020/12/17 00:34:54;;;;;;;243.57;35.10;;;;;;;0.22;100.00;96163.00;1026506;28;20035;-70
2020/12/17 00:35:25;;;;;;;192.00;35.27;;;;;;;0.18;100.00;96161.78;1030151;28;20030;-72
2020/12/17 00:35:55;;;;;;;203.30;36.58;;;;;;;0.17;100.00;96162.00;1030372;28;20747;-73
2020/12/17 00:36:25;;;;;;;222.27;38.30;;;;;;;0.16;100.00;96156.00;1030305;28;20064;-69
2020/12/17 00:36:56;;;;;;;152.83;36.00;;;;;;;0.18;100.00;96161.78;1030359;28;20031;-73
2020/12/17 00:37:28;;;;;;;195.20;40.53;;;;;;;0.13;100.00;96153.78;1030544;28;20030;-69
2020/12/17 00:37:59;;;;;;;208.63;40.13;;;;;;;0.15;100.00;96151.84;1030963;28;20022;-71
2020/12/17 00:38:29;;;;;;;217.00;36.63;;;;;;;0.18;100.00;96161.00;1030278;28;20065;-70
2020/12/17 00:39:00;;;;;;;246.07;43.10;;;;;;;0.16;100.00;96153.44;1030566;28;20442;-71
2020/12/17 00:39:30;;;;;;;191.60;39.97;;;;;;;0.18;100.00;96164.38;1030401;28;20030;-70
2020/12/17 00:40:01;;;;;;;212.00;36.83;;;;;;;0.14;100.00;96157.19;1026352;28;20101;-71
2020/12/17 00:40:31;;;;;;;220.63;35.70;;;;;;;0.14;100.00;96158.00;1031140;28;20031;-71
2020/12/17 00:41:02;;;;;;;255.87;34.50;;;;;;;0.06;100.00;96147.78;1030671;28;20273;-70
2020/12/17 00:41:33;;;;;;;206.97;38.53;;;;;;;0.16;100.00;96155.22;1025653;28;20160;-69
2020/12/17 00:42:04;;;;;;;190.40;33.43;;;;;;;0.17;100.00;96156.84;1026324;28;20060;-71
2020/12/17 00:42:38;;;;;;;180.85;34.08;;;;;;;0.15;100.00;96151.84;1022512;28;20417;-71
2020/12/17 00:43:08;;;;;;;217.65;39.42;;;;;;;0.18;100.00;96156.63;1048911;28;20107;-71
2020/12/17 00:43:39;;;;;;;202.73;34.37;;;;;;;0.09;100.00;96142.25;1043027;28;20025;-70
2020/12/17 00:44:10;;;;;;;204.17;33.13;;;;;;;0.10;100.00;96149.03;1027733;28;20029;-71
2020/12/17 00:44:41;;;;;;;208.33;33.27;;;;;;;0.13;100.00;96153.78;1029966;28;20038;-71
2020/12/17 00:45:11;;;;;;;256.43;40.33;;;;;;;0.13;100.00;96153.00;1030706;28;20095;-73
2020/12/17 00:45:42;;;;;;;237.43;38.73;;;;;;;0.13;100.00;96158.16;1030200;28;20026;-70
2020/12/17 00:46:13;;;;;;;214.53;36.17;;;;;;;0.05;100.00;96141.03;1034605;28;20632;-69
2020/12/17 00:46:44;;;;;;;193.48;38.60;;;;;;;0.06;100.00;96142.63;1034287;28;20022;-71
2020/12/17 00:47:15;;;;;;;186.97;38.03;;;;;;;0.09;100.00;96141.47;1051491;28;20068;-72
2020/12/17 00:47:45;;;;;;;226.57;42.40;;;;;;;0.15;100.00;96151.84;1022052;28;20180;-71
2020/12/17 00:48:16;;;;;;;160.80;31.05;;;;;;;0.13;100.00;96148.63;1022633;28;20031;-71
2020/12/17 00:48:46;;;;;;;186.33;33.60;;;;;;;0.14;100.00;96149.47;1026758;28;20034;-68
2020/12/17 00:49:17;;;;;;;179.03;34.17;;;;;;;0.14;100.00;96150.25;1030675;28;20022;-68
2020/12/17 00:49:47;;;;;;;185.77;33.00;;;;;;;0.09;100.00;96150.00;1028251;28;20435;-71
2020/12/17 00:50:17;;;;;;;151.43;31.47;;;;;;;0.08;100.00;96151.00;1026420;28;20060;-72
2020/12/17 00:50:48;;;;;;;227.40;34.92;;;;;;;0.02;100.00;96146.56;1026465;28;20504;-69
2020/12/17 00:51:19;;;;;;;206.80;35.07;;;;;;;-0.01;100.00;96141.78;1033583;28;20026;-68
2020/12/17 00:51:49;;;;;;;201.60;36.47;;;;;;;0.02;100.00;96146.56;1042175;28;20033;-70
2020/12/17 00:52:22;;;;;;;194.40;37.00;;;;;;;0.02;100.00;96154.31;1042685;28;20066;-73
2020/12/17 00:52:52;;;;;;;186.90;33.70;;;;;;;0.05;100.00;96151.38;1034515;28;20022;-69
2020/12/17 00:53:23;;;;;;;174.80;34.70;;;;;;;0.07;100.00;96157.16;1038480;28;20025;-72
2020/12/17 00:53:53;;;;;;;192.97;36.17;;;;;;;0.05;100.00;96153.94;1034499;28;20088;-72
2020/12/17 00:54:24;;;;;;;157.60;33.33;;;;;;;-0.12;100.00;96137.94;1030073;28;20023;-70
2020/12/17 00:54:54;;;;;;;166.53;32.13;;;;;;;0.00;100.00;96151.13;1026328;28;20038;-69
2020/12/17 00:55:25;;;;;;;213.30;39.17;;;;;;;0.02;100.00;96151.72;1022422;28;20035;-70
2020/12/17 00:55:55;;;;;;;173.27;32.70;;;;;;;0.00;100.00;96158.88;1022712;28;20105;-71
2020/12/17 00:56:26;;;;;;;166.30;35.00;;;;;;;0.01;100.00;96154.50;1022353;28;20877;-73
2020/12/17 00:56:56;;;;;;;175.63;34.47;;;;;;;0.04;100.00;96160.09;1030236;28;20519;-74
2020/12/17 00:57:27;;;;;;;150.50;36.47;;;;;;;0.03;100.00;96163.63;1026614;28;20026;-71
2020/12/17 00:57:57;;;;;;;190.80;35.27;;;;;;;0.04;100.00;96160.09;1026220;28;20023;-68
2020/12/17 00:58:27;;;;;;;190.03;35.87;;;;;;;0.05;100.00;96161.69;1034609;28;20033;-70
2020/12/17 00:58:58;;;;;;;162.03;39.10;;;;;;;0.04;100.00;96162.69;1030259;28;20036;-70
2020/12/17 00:59:28;;;;;;;162.40;35.43;;;;;;;0.08;100.00;96169.06;1026351;28;20022;-70
2020/12/17 00:59:59;;;;;;;162.37;35.67;;;;;;;0.09;100.00;96173.22;1020263;28;20771;-71
2020/12/17 01:00:29;;;;;;;185.40;37.63;;;;;;;0.12;100.00;96172.06;1022484;28;20057;-72
2020/12/17 01:01:05;;;;;;;130.37;34.67;;;;;;;0.15;100.00;96176.84;1022324;28;20347;-73
2020/12/17 01:01:35;;;;;;;122.97;32.78;;;;;;;0.18;100.00;96176.47;1030222;28;20027;-70
2020/12/17 01:02:06;;;;;;;186.07;39.67;;;;;;;0.22;100.00;96180.28;1030978;28;20041;-71
2020/12/17 01:02:36;;;;;;;195.87;38.27;;;;;;;0.16;100.00;96162.94;1035190;28;20045;-71
2020/12/17 01:03:07;;;;;;;123.77;31.47;;;;;;;0.18;100.00;96172.09;1038315;28;20554;-71
2020/12/17 01:03:37;;;;;;;155.10;30.57;;;;;;;0.24;100.00;96175.75;1038409;28;20033;-69
2020/12/17 01:04:08;;;;;;;238.77;33.90;;;;;;;0.17;100.00;96175.69;1034245;28;21423;-72
2020/12/17 01:04:38;;;;;;;183.80;33.53;;;;;;;0.13;100.00;96169.28;1034156;28;20363;-68
2020/12/17 01:05:09;;;;;;;182.63;34.07;;;;;;;0.18;100.00;96177.28;1034411;28;20051;-69
2020/12/17 01:05:39;;;;;;;138.97;32.30;;;;;;;0.21;100.00;96182.06;1034233;28;20452;-69
2020/12/17 01:06:13;;;;;;;155.47;31.50;;;;;;;0.20;100.00;96182.22;1034443;28;20114;-69
2020/12/17 01:06:44;;;;;;;177.05;38.03;;;;;;;0.24;100.00;96186.06;1030786;28;20138;-72
2020/12/17 01:07:15;;;;;;;181.17;27.13;;;;;;;0.14;100.00;96181.22;1030754;28;20038;-69
2020/12/17 01:07:45;;;;;;;191.80;34.40;;;;;;;0.24;100.00;96186.06;1026140;28;20030;-71
2020/12/17 01:08:16;;;;;;;256.67;39.40;;;;;;;0.17;100.00;96174.91;1042547;28;20021;-72
2020/12/17 01:08:46;;;;;;;170.13;29.83;;;;;;;0.25;100.00;96192.81;1022427;28;20681;-72
2020/12/17 01:09:16;;;;;;;204.40;36.93;;;;;;;0.26;100.00;96193.59;1030143;28;20030;-70
2020/12/17 01:09:47;;;;;;;225.37;37.80;;;;;;;0.26;100.00;96196.19;1023434;28;20072;-72
2020/12/17 01:10:18;;;;;;;170.03;30.90;;;;;;;0.24;100.00;96193.81;1018538;29;20670;-69
2020/12/17 01:10:48;;;;;;;155.70;31.43;;;;;;;0.26;100.00;96193.59;1018585;28;20551;-71
2020/12/17 01:11:26;;;;;;;162.83;30.17;;;;;;;0.16;100.00;96184.38;1026364;28;20027;-67
2020/12/17 01:11:56;;;;;;;191.30;32.00;;;;;;;0.21;100.00;96187.22;1035116;28;20053;-71
2020/12/17 01:12:27;;;;;;;195.80;30.13;;;;;;;0.18;100.00;96192.75;1039614;28;20070;-71
2020/12/17 01:12:57;;;;;;;189.27;31.63;;;;;;;0.15;100.00;96180.22;1038422;28;20021;-71
2020/12/17 01:13:28;;;;;;;172.83;30.50;;;;;;;0.09;100.00;96178.38;1038233;28;20478;-68
2020/12/17 01:13:58;;;;;;;266.07;38.60;;;;;;;0.11;100.00;96180.78;1034040;28;20030;-68
2020/12/17 01:14:29;;;;;;;244.67;36.83;;;;;;;0.10;100.00;96179.16;1034450;28;20014;-69
2020/12/17 01:14:59;;;;;;;220.57;34.90;;;;;;;0.15;100.00;96182.81;1030160;28;20014;-70
2020/12/17 01:15:30;;;;;;;253.17;42.10;;;;;;;0.17;100.00;96186.00;1030279;28;20093;-71
2020/12/17 01:16:00;;;;;;;239.73;34.10;;;;;;;0.08;100.00;96171.63;1055627;28;20111;-71
2020/12/17 01:16:31;;;;;;;245.27;36.43;;;;;;;0.15;100.00;96182.81;1054932;28;20059;-70
2020/12/17 01:17:02;;;;;;;241.03;40.33;;;;;;;0.17;100.00;96187.78;1026454;28;20626;-71
2020/12/17 01:17:32;;;;;;;330.97;46.77;;;;;;;0.19;100.00;96191.75;1030487;28;20038;-70
2020/12/17 01:18:02;;;;;;;234.73;38.90;;;;;;;0.18;100.00;96187.59;1030264;28;20549;-71
2020/12/17 01:18:33;;;;;;;165.10;32.73;;;;;;;0.15;100.00;96176.84;1034428;28;20064;-69
2020/12/17 01:19:04;;;;;;;197.97;36.83;;;;;;;0.18;100.00;96190.16;1030291;28;20029;-71
2020/12/17 01:19:35;;;;;;;212.63;33.72;;;;;;;0.09;100.00;96170.63;1030342;28;20557;-71
2020/12/17 01:20:08;;;;;;;236.97;37.33;;;;;;;0.18;100.00;96185.00;1023610;28;20036;-68
2020/12/17 01:20:41;;;;;;;195.05;33.50;;;;;;;0.15;100.00;96182.81;1026225;28;20023;-69
2020/12/17 01:21:12;;;;;;;201.80;32.23;;;;;;;0.13;100.00;96179.59;1030411;28;20482;-69
2020/12/17 01:21:42;;;;;;;259.73;43.70;;;;;;;0.15;100.00;96182.81;1033312;28;20050;-71
2020/12/17 01:22:13;;;;;;;219.63;37.07;;;;;;;0.14;100.00;96177.84;1033525;28;20014;-70
2020/12/17 01:22:43;;;;;;;260.47;43.43;;;;;;;0.18;100.00;96186.78;1030404;28;20129;-71
2020/12/17 01:23:14;;;;;;;247.13;37.77;;;;;;;0.09;100.00;96172.44;1030300;28;20102;-70
2020/12/17 01:23:44;;;;;;;195.70;36.27;;;;;;;0.16;100.00;96186.97;1034324;28;20039;-72
2020/12/17 01:24:15;;;;;;;215.53;41.73;;;;;;;0.18;100.00;96187.59;1030087;28;20014;-68
2020/12/17 01:24:45;;;;;;;248.00;36.83;;;;;;;0.19;100.00;96189.19;1034504;28;20110;-68
2020/12/17 01:25:16;;;;;;;209.00;34.30;;;;;;;0.19;100.00;96190.97;1034368;28;20025;-69
2020/12/17 01:25:46;;;;;;;267.67;39.40;;;;;;;0.18;100.00;96187.59;1034434;28;20062;-71
2020/12/17 01:26:17;;;;;;;212.27;34.73;;;;;;;0.11;100.00;96181.59;1038274;28;20021;-68
2020/12/17 01:26:47;;;;;;;191.17;33.37;;;;;;;0.07;100.00;96179.53;1051462;28;20019;-70
2020/12/17 01:27:18;;;;;;;324.07;49.23;;;;;;;0.13;100.00;96184.75;1051104;28;20024;-69
2020/12/17 01:27:48;;;;;;;248.23;39.00;;;;;;;0.16;100.00;96189.53;1047232;28;20017;-70
2020/12/17 01:28:19;;;;;;;236.40;38.80;;;;;;;0.15;100.00;96190.53;1046820;28;20725;-69
2020/12/17 01:28:49;;;;;;;203.37;34.43;;;;;;;0.15;100.00;96184.59;1047352;28;20013;-69
2020/12/17 01:29:20;;;;;;;209.70;35.63;;;;;;;0.18;100.00;96191.97;1047202;28;20087;-68
2020/12/17 01:29:50;;;;;;;238.40;40.00;;;;;;;0.18;100.00;96192.75;1044224;28;20029;-70
2020/12/17 01:30:21;;;;;;;219.73;35.93;;;;;;;0.18;100.00;96191.97;1026417;28;20022;-72
2020/12/17 01:30:51;;;;;;;163.57;32.50;;;;;;;0.14;100.00;96181.22;1031915;28;20030;-71
2020/12/17 01:31:22;;;;;;;215.50;41.03;;;;;;;0.19;100.00;96191.75;1031538;28;20468;-70
2020/12/17 01:31:59;;;;;;;218.37;41.40;;;;;;;0.21;100.00;96192.38;1037681;28;20045;-70
2020/12/17 01:32:30;;;;;;;164.27;33.80;;;;;;;0.21;100.00;96189.00;1034043;28;20018;-65
2020/12/17 01:33:00;;;;;;;193.10;35.17;;;;;;;0.18;100.00;96187.59;1039398;28;20044;-69
2020/12/17 01:33:31;;;;;;;159.03;34.63;;;;;;;0.18;100.00;96184.22;1036336;28;20033;-71
2020/12/17 01:34:01;;;;;;;186.77;35.13;;;;;;;0.17;100.00;96187.78;1034138;28;20426;-69
2020/12/17 01:34:31;;;;;;;207.77;37.50;;;;;;;0.16;100.00;96183.59;1029945;28;20093;-72
2020/12/17 01:35:02;;;;;;;144.87;32.73;;;;;;;0.16;100.00;96175.84;1029481;28;20057;-71
2020/12/17 01:35:33;;;;;;;184.17;38.03;;;;;;;0.15;100.00;96187.97;1051331;28;20565;-68
2020/12/17 01:36:04;;;;;;;177.47;37.97;;;;;;;0.17;100.00;96186.00;1046080;28;20025;-69
2020/12/17 01:36:34;;;;;;;177.43;32.25;;;;;;;0.15;100.00;96184.59;1042527;28;20116;-72
2020/12/17 01:37:05;;;;;;;182.10;33.43;;;;;;;0.13;100.00;96184.75;1025862;28;20419;-70
2020/12/17 01:37:35;;;;;;;171.60;31.17;;;;;;;0.10;100.00;96185.16;1024971;28;20034;-68
2020/12/17 01:38:06;;;;;;;123.80;30.10;;;;;;;0.12;100.00;96185.75;1030191;28;20357;-69
2020/12/17 01:38:37;;;;;;;230.13;36.43;;;;;;;0.11;100.00;96181.59;1029881;28;20026;-69
2020/12/17 01:39:07;;;;;;;186.80;33.90;;;;;;;0.11;100.00;96189.31;1026227;28;20450;-70
2020/12/17 01:39:38;;;;;;;179.40;32.63;;;;;;;0.10;100.00;96180.00;1022170;28;20278;-68
2020/12/17 01:40:08;;;;;;;177.77;37.00;;;;;;;0.08;100.00;96176.78;1028938;28;20498;-69
2020/12/17 01:40:39;;;;;;;170.20;33.40;;;;;;;0.09;100.00;96180.97;1025895;28;20030;-70
2020/12/17 01:41:12;;;;;;;165.83;35.27;;;;;;;0.12;100.00;96180.59;1034451;28;20029;-72
2020/12/17 01:41:42;;;;;;;161.68;32.97;;;;;;;0.13;100.00;96187.34;1021382;29;20023;-68
2020/12/17 01:42:13;;;;;;;152.70;32.50;;;;;;;0.02;100.00;96167.22;1022778;28;20027;-71
2020/12/17 01:42:43;;;;;;;212.10;35.10;;;;;;;0.14;100.00;96181.22;1029610;28;20023;-70
2020/12/17 01:43:14;;;;;;;237.40;41.63;;;;;;;0.14;100.00;96183.00;1022469;28;20027;-69
2020/12/17 01:43:45;;;;;;;239.47;42.80;;;;;;;0.11;100.00;96181.59;1026243;28;20054;-72
2020/12/17 01:44:16;;;;;;;160.15;32.60;;;;;;;0.11;100.00;96176.44;1021785;28;20342;-70
2020/12/17 01:44:46;;;;;;;249.50;41.90;;;;;;;0.12;100.00;96183.16;1022176;28;20054;-68
2020/12/17 01:45:17;;;;;;;212.63;38.93;;;;;;;0.08;100.00;96176.78;1026290;28;20023;-69
2020/12/17 01:45:47;;;;;;;207.30;39.03;;;;;;;0.09;100.00;96178.38;1022319;28;20019;-70
2020/12/17 01:46:18;;;;;;;196.67;37.47;;;;;;;0.14;100.00;96185.59;1018373;29;20455;-71
2020/12/17 01:46:48;;;;;;;214.20;36.80;;;;;;;0.16;100.00;96189.53;1020185;28;20032;-70
2020/12/17 01:47:19;;;;;;;230.57;40.67;;;;;;;0.09;100.00;96175.81;1022388;28;20101;-70
2020/12/17 01:47:49;;;;;;;190.73;35.97;;;;;;;0.15;100.00;96182.81;1026194;28;20023;-71
2020/12/17 01:48:20;;;;;;;143.50;30.90;;;;;;;0.18;100.00;96190.16;1018360;28;20484;-68
2020/12/17 01:48:50;;;;;;;224.00;38.07;;;;;;;0.17;100.00;96185.22;1026130;28;20030;-69
2020/12/17 01:49:25;;;;;;;247.00;45.27;;;;;;;0.17;100.00;96183.44;1030255;28;20780;-69
2020/12/17 01:49:55;;;;;;;290.33;45.13;;;;;;;0.23;100.00;96185.25;1020775;29;20035;-70
2020/12/17 01:50:26;;;;;;;183.47;33.73;;;;;;;0.20;100.00;96184.81;1018002;28;20576;-68
2020/12/17 01:50:56;;;;;;;193.00;36.83;;;;;;;0.23;100.00;96185.25;1026028;28;20045;-70
2020/12/17 01:51:27;;;;;;;225.73;37.90;;;;;;;0.26;100.00;96188.44;1025583;28;20144;-73
2020/12/17 01:51:58;;;;;;;207.10;38.23;;;;;;;0.27;100.00;96184.88;1026070;28;20038;-70
2020/12/17 01:52:28;;;;;;;187.10;36.50;;;;;;;0.27;100.00;96182.28;1030198;28;20022;-72
2020/12/17 01:52:59;;;;;;;154.27;34.13;;;;;;;0.31;100.00;96186.13;1026171;28;20031;-71
2020/12/17 01:53:39;;;;;;;187.77;38.17;;;;;;;0.28;100.00;96181.31;1043139;28;20017;-71
2020/12/17 01:54:10;;;;;;;;;;;;;;;0.26;100.00;96184.06;1043458;28;20425;-69
2020/12/17 01:54:52;;;;;;;204.50;34.93;;;;;;;0.23;100.00;96176.69;1039317;28;19919;-70
2020/12/17 01:55:25;;;;;;;190.94;30.54;;;;;;;0.21;100.00;96182.06;1021994;28;20178;-69
2020/12/17 01:56:00;;;;;;;230.63;38.92;;;;;;;0.15;100.00;96162.16;1026111;28;20038;-69
2020/12/17 01:56:30;;;;;;;170.38;33.45;;;;;;;0.17;100.00;96172.31;1026146;28;20046;-69
2020/12/17 01:57:02;;;;;;;213.17;39.43;;;;;;;0.22;100.00;96177.69;1022234;29;20035;-69
2020/12/17 01:57:33;;;;;;;166.45;32.67;;;;;;;0.20;100.00;96170.16;1026181;28;20027;-70
2020/12/17 01:58:03;;;;;;;202.67;36.80;;;;;;;0.03;100.00;96137.03;1025931;28;20027;-71
2020/12/17 01:58:39;;;;;;;196.63;36.23;;;;;;;0.22;100.00;96163.00;1026253;28;20031;-71
2020/12/17 01:59:21;;;;;;;174.56;38.06;;;;;;;0.22;100.00;96173.31;1030260;28;20558;-72
2020/12/17 01:59:52;;;;;;;151.32;29.70;;;;;;;0.21;100.00;96171.75;1025076;28;20039;-72
2020/12/17 02:00:22;;;;;;;181.43;33.78;;;;;;;0.13;100.00;96161.53;1042974;28;20409;-70
2020/12/17 02:00:53;;;;;;;185.40;38.60;;;;;;;0.19;100.00;96172.91;1022088;28;20031;-70
2020/12/17 02:01:24;;;;;;;169.73;33.08;;;;;;;0.17;100.00;96175.69;1021488;29;20027;-71
2020/12/17 02:01:55;;;;;;;167.35;37.17;;;;;;;0.07;100.00;96156.31;1022131;29;20040;-70
2020/12/17 02:02:25;;;;;;;214.57;39.50;;;;;;;0.09;100.00;96162.91;1021975;28;20030;-69
2020/12/17 02:02:56;;;;;;;157.97;34.07;;;;;;;0.17;100.00;96177.47;1018454;29;20031;-69
2020/12/17 02:03:26;;;;;;;173.97;37.43;;;;;;;0.17;100.00;96178.25;1018105;29;20036;-70
2020/12/17 02:03:58;;;;;;;158.52;34.10;;;;;;;0.09;100.00;96167.25;1025884;28;20432;-69
2020/12/17 02:04:28;;;;;;;145.02;30.58;;;;;;;0.12;100.00;96178.00;1026214;28;20026;-68
2020/12/17 02:04:59;;;;;;;167.97;32.20;;;;;;;0.06;100.00;96165.06;1026184;28;20236;-71
2020/12/17 02:05:30;;;;;;;156.23;30.58;;;;;;;0.10;100.00;96177.41;1038710;28;20021;-69
2020/12/17 02:06:00;;;;;;;203.57;38.60;;;;;;;0.10;100.00;96174.00;1023514;28;20474;-68
2020/12/17 02:06:33;;;;;;;184.07;33.23;;;;;;;0.07;100.00;96170.03;1020531;29;20126;-69
2020/12/17 02:07:04;;;;;;;204.02;37.10;;;;;;;0.04;100.00;96170.41;1026853;28;20035;-72
2020/12/17 02:07:35;;;;;;;243.88;40.50;;;;;;;0.07;100.00;96179.53;1042008;28;20031;-70
2020/12/17 02:08:06;;;;;;;192.47;33.50;;;;;;;0.02;100.00;96177.53;1040613;28;20633;-70
2020/12/17 02:08:38;;;;;;;181.23;31.57;;;;;;;0.06;100.00;96183.13;1041458;28;20036;-72
2020/12/17 02:09:09;;;;;;;173.23;36.45;;;;;;;0.10;100.00;96190.31;1028783;28;20018;-69
2020/12/17 02:09:39;;;;;;;201.87;39.77;;;;;;;0.06;100.00;96189.06;1029978;28;20042;-70
2020/12/17 02:10:10;;;;;;;210.30;36.27;;;;;;;0.14;100.00;96191.53;1021982;29;20034;-71
2020/12/17 02:10:41;;;;;;;160.57;36.03;;;;;;;0.16;100.00;96199.88;1022633;28;20031;-71
2020/12/17 02:11:11;;;;;;;233.67;43.30;;;;;;;0.18;100.00;96192.75;1026198;28;20039;-69
2020/12/17 02:12:00;;;;;;;216.00;41.97;;;;;;;0.13;100.00;96192.50;1024810;28;20031;-69
2020/12/17 02:12:48;;;;;;;208.55;39.35;;;;;;;0.19;100.00;96202.09;1030009;28;20026;-71
2020/12/17 02:13:31;;;;;;;169.88;34.10;;;;;;;0.18;100.00;96210.81;1039398;28;20530;-70
2020/12/17 02:14:01;;;;;;;168.13;32.85;;;;;;;0.23;100.00;96207.66;1038450;28;20037;-70
2020/12/17 02:14:32;;;;;;;173.33;34.37;;;;;;;0.18;100.00;96203.06;1033861;28;20400;-69
2020/12/17 02:15:02;;;;;;;142.37;28.53;;;;;;;0.25;100.00;96212.66;1023367;28;20024;-71
2020/12/17 02:15:33;;;;;;;116.87;25.97;;;;;;;0.28;100.00;96207.13;1026004;28;20400;-69
2020/12/17 02:16:06;;;;;;;181.60;32.27;;;;;;;0.27;100.00;96208.09;1021988;28;20027;-68
2020/12/17 02:16:37;;;;;;;118.95;26.85;;;;;;;0.28;100.00;96207.13;1025292;28;20075;-72
2020/12/17 02:17:07;;;;;;;138.63;28.93;;;;;;;0.27;100.00;96205.50;1026265;28;20605;-69
2020/12/17 02:17:38;;;;;;;226.53;37.30;;;;;;;0.07;100.00;96172.63;1026584;28;20026;-69
2020/12/17 02:18:08;;;;;;;139.03;30.10;;;;;;;0.25;100.00;96202.34;1026519;28;20748;-68
2020/12/17 02:18:39;;;;;;;185.95;32.33;;;;;;;0.25;100.00;96207.50;1027210;28;20029;-70
2020/12/17 02:19:09;;;;;;;158.00;30.05;;;;;;;0.21;100.00;96197.53;1021997;28;20516;-71
2020/12/17 02:19:40;;;;;;;178.63;31.15;;;;;;;0.21;100.00;96197.53;1020553;28;20046;-69
2020/12/17 02:20:10;;;;;;;143.47;28.00;;;;;;;0.17;100.00;96190.38;1017067;29;20039;-71
2020/12/17 02:20:41;;;;;;;144.30;31.83;;;;;;;0.20;100.00;96195.13;1018171;28;20023;-71
2020/12/17 02:21:13;;;;;;;189.97;38.63;;;;;;;0.22;100.00;96198.34;1026182;28;20023;-70
2020/12/17 02:21:44;;;;;;;163.77;36.33;;;;;;;0.22;100.00;96188.81;1022131;28;20065;-69